createdAt,value
2019-03-15T00:02:12.908Z,74.60
2019-03-15T00:04:41.643Z,74.90
2019-03-15T00:07:09.631Z,74.50
2019-03-15T00:09:37.546Z,74.70
2019-03-15T00:12:05.507Z,74.40
2019-03-15T00:14:33.628Z,73.50
2019-03-15T00:17:03.917Z,74.00
2019-03-15T00:19:31.892Z,73.90
2019-03-15T00:21:59.810Z,74.00
2019-03-15T00:24:27.807Z,74.10
2019-03-15T00:26:55.817Z,74.90
2019-03-15T00:29:23.766Z,73.90
2019-03-15T00:31:52.600Z,74.30
2019-03-15T00:34:20.624Z,74.50
2019-03-15T00:36:48.789Z,73.90
2019-03-15T00:39:16.875Z,73.60
2019-03-15T00:41:44.782Z,73.60
2019-03-15T00:44:12.731Z,74.20
2019-03-15T00:46:40.994Z,75.00
2019-03-15T00:49:10.597Z,74.70
2019-03-15T00:51:38.667Z,74.90
2019-03-15T00:54:07.756Z,75.10
2019-03-15T00:56:35.633Z,75.00
2019-03-15T00:59:03.597Z,75.20
2019-03-15T01:01:31.651Z,75.00
2019-03-15T01:03:59.638Z,74.80
2019-03-15T01:06:27.697Z,74.70
2019-03-15T01:08:57.663Z,74.50
2019-03-15T01:11:25.638Z,74.20
2019-03-15T01:13:53.623Z,73.90
2019-03-15T01:16:21.680Z,74.20
2019-03-15T01:18:50.999Z,74.00
2019-03-15T01:21:19.275Z,73.60
2019-03-15T01:23:47.448Z,72.40
2019-03-15T01:26:15.439Z,72.50
2019-03-15T01:28:43.417Z,72.80
2019-03-15T01:31:11.491Z,72.90
2019-03-15T01:33:39.893Z,73.00
2019-03-15T01:36:08.149Z,72.80
2019-03-15T01:38:36.138Z,72.90
2019-03-15T01:41:04.334Z,73.10
2019-03-15T01:43:32.452Z,73.30
2019-03-15T01:46:00.607Z,73.10
2019-03-15T01:48:28.576Z,73.30
2019-03-15T01:50:56.541Z,73.70
2019-03-15T01:53:24.544Z,73.50
2019-03-15T01:55:53.755Z,72.60
2019-03-15T01:58:21.798Z,72.70
2019-03-15T02:00:49.774Z,72.30
2019-03-15T02:03:17.873Z,72.70
2019-03-15T02:05:46.503Z,72.40
2019-03-15T02:08:14.559Z,72.40
2019-03-15T02:10:42.848Z,72.90
2019-03-15T02:13:10.842Z,72.50
2019-03-15T02:15:38.812Z,72.20
2019-03-15T02:18:06.806Z,71.00
2019-03-15T02:20:34.729Z,71.00
2019-03-15T02:23:02.610Z,70.60
2019-03-15T02:25:30.524Z,70.20
2019-03-15T02:27:58.424Z,70.40
2019-03-15T02:30:26.387Z,70.00
2019-03-15T02:32:54.324Z,70.30
2019-03-15T02:35:22.332Z,69.90
2019-03-15T02:37:50.251Z,70.30
2019-03-15T02:40:18.316Z,70.60
2019-03-15T02:42:46.326Z,70.90
2019-03-15T02:45:14.278Z,71.00
2019-03-15T02:47:42.205Z,70.40
2019-03-15T02:50:10.156Z,70.60
2019-03-15T02:52:38.124Z,70.70
2019-03-15T02:55:06.414Z,71.50
2019-03-15T02:57:35.514Z,71.80
2019-03-15T03:00:05.097Z,71.50
2019-03-15T03:02:34.100Z,71.40
2019-03-15T03:05:02.184Z,71.80
2019-03-15T03:07:30.222Z,72.00
2019-03-15T03:09:58.222Z,72.10
2019-03-15T03:12:26.154Z,72.20
2019-03-15T03:14:54.108Z,72.40
2019-03-15T03:17:22.057Z,72.40
2019-03-15T03:19:50.037Z,72.50
2019-03-15T03:22:17.943Z,72.80
2019-03-15T03:24:45.858Z,72.90
2019-03-15T03:27:13.783Z,73.20
2019-03-15T03:29:41.651Z,73.30
2019-03-15T03:32:09.604Z,73.70
2019-03-15T03:34:39.534Z,74.00
2019-03-15T03:37:07.393Z,73.90
2019-03-15T03:39:35.279Z,73.90
2019-03-15T03:42:03.178Z,74.30
2019-03-15T03:44:31.098Z,74.80
2019-03-15T03:46:59.108Z,75.00
2019-03-15T03:49:27.450Z,75.50
2019-03-15T03:51:55.444Z,76.10
2019-03-15T03:54:23.318Z,76.80
2019-03-15T03:56:51.252Z,76.90
2019-03-15T03:59:19.181Z,76.90
2019-03-15T04:01:47.116Z,76.90
2019-03-15T04:04:14.989Z,76.80
2019-03-15T04:06:43.445Z,76.80
2019-03-15T04:09:12.374Z,77.10
2019-03-15T04:11:54.321Z,77.10
2019-03-15T04:14:10.114Z,77.30
2019-03-15T04:16:38.029Z,77.40
2019-03-15T04:19:05.958Z,77.60
2019-03-15T04:21:33.876Z,77.60
2019-03-15T04:24:01.808Z,77.70
2019-03-15T04:26:30.396Z,78.20
2019-03-15T04:28:58.456Z,77.90
2019-03-15T04:31:26.368Z,78.00
2019-03-15T04:33:54.449Z,77.90
2019-03-15T04:36:22.308Z,78.20
2019-03-15T04:38:50.222Z,78.10
2019-03-15T04:41:18.133Z,78.30
2019-03-15T04:43:46.068Z,78.30
2019-03-15T04:46:13.952Z,78.50
2019-03-15T04:48:41.967Z,78.50
2019-03-15T04:51:09.982Z,78.40
2019-03-15T04:53:38.866Z,78.70
2019-03-15T04:56:12.869Z,79.00
2019-03-15T04:58:40.798Z,79.10
2019-03-15T05:01:10.949Z,78.80
2019-03-15T05:03:38.845Z,79.10
2019-03-15T05:06:06.843Z,79.70
2019-03-15T05:08:34.695Z,80.00
2019-03-15T05:11:02.744Z,79.40
2019-03-15T05:13:30.698Z,79.40
2019-03-15T05:15:58.676Z,79.20
2019-03-15T05:18:26.647Z,79.40
2019-03-15T05:20:54.652Z,79.10
2019-03-15T05:23:22.702Z,79.00
2019-03-15T05:25:50.616Z,78.80
2019-03-15T05:28:18.557Z,78.60
2019-03-15T05:30:46.571Z,78.30
2019-03-15T05:33:14.542Z,78.60
2019-03-15T05:35:42.431Z,77.70
2019-03-15T05:38:10.509Z,78.00
2019-03-15T05:40:38.411Z,78.20
2019-03-15T05:43:06.317Z,78.60
2019-03-15T05:45:34.255Z,79.00
2019-03-15T05:48:02.198Z,80.00
2019-03-15T05:50:30.209Z,80.30
2019-03-15T05:52:58.172Z,81.50
2019-03-15T05:55:26.108Z,82.30
2019-03-15T05:57:54.052Z,83.90
2019-03-15T06:00:22.011Z,84.70
2019-03-15T06:02:49.911Z,85.40
2019-03-15T06:05:18.158Z,86.10
2019-03-15T06:07:46.479Z,87.00
2019-03-15T06:10:15.346Z,87.30
2019-03-15T06:12:43.461Z,88.50
2019-03-15T06:15:11.810Z,89.10
2019-03-15T06:17:40.802Z,90.00
2019-03-15T06:20:08.781Z,90.00
2019-03-15T06:22:36.733Z,90.40
2019-03-15T06:25:05.225Z,90.80
2019-03-15T06:27:33.355Z,90.70
2019-03-15T06:30:01.760Z,91.10
2019-03-15T06:32:29.851Z,91.30
2019-03-15T06:34:57.722Z,91.70
2019-03-15T06:37:25.973Z,91.90
2019-03-15T06:39:53.851Z,92.20
2019-03-15T06:42:21.836Z,92.60
2019-03-15T06:44:57.764Z,92.60
2019-03-15T06:47:20.231Z,92.80
2019-03-15T06:49:48.201Z,92.90
2019-03-15T06:52:16.376Z,92.80
2019-03-15T06:54:44.643Z,93.00
2019-03-15T06:57:12.566Z,92.60
2019-03-15T06:59:40.851Z,92.60
2019-03-15T07:02:08.949Z,92.80
2019-03-15T07:04:36.935Z,92.80
2019-03-15T07:07:04.917Z,92.60
2019-03-15T07:09:33.124Z,92.60
2019-03-15T07:12:09.303Z,92.60
2019-03-15T07:14:31.289Z,92.50
2019-03-15T07:16:59.231Z,92.50
2019-03-15T07:19:30.356Z,93.00
2019-03-15T07:21:57.057Z,92.60
2019-03-15T07:24:25.809Z,93.10
2019-03-15T07:26:54.824Z,93.50
2019-03-15T07:29:23.024Z,93.00
2019-03-15T07:31:51.004Z,92.90
2019-03-15T07:34:19.135Z,93.10
2019-03-15T07:36:47.080Z,92.90
2019-03-15T07:39:15.719Z,93.00
2019-03-15T07:41:43.793Z,92.90
2019-03-15T07:44:12.052Z,93.00
2019-03-15T07:46:40.229Z,93.50
2019-03-15T07:49:08.595Z,93.90
2019-03-15T07:51:36.568Z,94.40
2019-03-15T07:54:04.595Z,94.90
2019-03-15T07:56:32.611Z,94.90
2019-03-15T07:59:00.614Z,95.10
2019-03-15T08:01:28.727Z,95.80
2019-03-15T08:03:56.708Z,96.30
2019-03-15T08:06:34.033Z,96.50
2019-03-15T08:08:54.698Z,96.80
2019-03-15T08:11:22.990Z,97.20
2019-03-15T08:13:51.360Z,97.30
2019-03-15T08:16:19.259Z,97.70
2019-03-15T08:18:47.255Z,98.00
2019-03-15T08:21:15.312Z,98.00
2019-03-15T08:23:43.325Z,98.40
2019-03-15T08:26:11.387Z,98.40
2019-03-15T08:28:39.506Z,98.90
2019-03-15T08:31:07.506Z,99.00
2019-03-15T08:33:35.642Z,99.20
2019-03-15T08:36:03.550Z,99.20
2019-03-15T08:38:31.528Z,99.30
2019-03-15T08:40:59.542Z,99.60
2019-03-15T08:43:27.560Z,99.60
2019-03-15T08:45:55.531Z,99.70
2019-03-15T08:48:23.527Z,99.80
2019-03-15T08:50:51.517Z,99.70
2019-03-15T08:53:24.778Z,99.80
2019-03-15T08:55:52.747Z,99.90
2019-03-15T08:58:22.634Z,99.80
2019-03-15T09:00:50.827Z,99.90
2019-03-15T09:03:27.929Z,99.90
2019-03-15T09:05:49.017Z,99.90
2019-03-15T09:08:17.217Z,99.90
2019-03-15T09:10:45.902Z,99.90
2019-03-15T09:13:14.043Z,99.90
2019-03-15T09:15:43.081Z,99.90
2019-03-15T09:18:11.180Z,99.90
2019-03-15T09:20:39.214Z,99.70
2019-03-15T09:23:07.271Z,99.90
2019-03-15T09:25:35.287Z,99.90
2019-03-15T09:28:03.435Z,99.90
2019-03-15T09:30:32.018Z,99.90
2019-03-15T09:33:02.975Z,99.90
2019-03-15T09:35:31.428Z,99.90
2019-03-15T09:37:59.446Z,99.60
2019-03-15T09:40:27.576Z,99.90
2019-03-15T09:42:59.752Z,99.90
2019-03-15T09:45:27.025Z,99.90
2019-03-15T09:47:55.071Z,99.90
2019-03-15T09:50:33.664Z,99.90
2019-03-15T09:52:53.568Z,99.90
2019-03-15T09:55:32.159Z,99.90
2019-03-15T09:57:52.058Z,99.90
2019-03-15T10:00:20.036Z,99.90
2019-03-15T10:02:50.631Z,99.90
2019-03-15T10:05:18.699Z,99.90
2019-03-15T10:07:46.736Z,99.90
2019-03-15T10:10:18.636Z,99.90
2019-03-15T10:12:47.057Z,99.90
2019-03-15T10:15:16.274Z,99.90
2019-03-15T10:17:44.638Z,99.90
2019-03-15T10:20:13.091Z,99.90
2019-03-15T10:22:41.231Z,99.90
2019-03-15T10:25:09.554Z,99.90
2019-03-15T10:27:38.197Z,99.90
2019-03-15T10:30:08.153Z,99.90
2019-03-15T10:32:39.722Z,99.90
2019-03-15T10:35:09.364Z,99.90
2019-03-15T10:37:37.508Z,99.90
2019-03-15T10:40:08.541Z,99.90
2019-03-15T10:42:37.734Z,99.90
2019-03-15T10:45:06.581Z,99.90
2019-03-15T10:47:36.385Z,99.90
2019-03-15T10:50:05.124Z,99.90
2019-03-15T10:52:33.322Z,99.90
2019-03-15T10:55:02.225Z,99.90
2019-03-15T10:57:30.262Z,99.90
2019-03-15T10:59:58.878Z,99.90
2019-03-15T11:02:26.790Z,99.90
2019-03-15T11:04:55.551Z,99.90
2019-03-15T11:07:23.667Z,99.90
2019-03-15T11:09:51.937Z,99.90
2019-03-15T11:12:20.071Z,99.90
2019-03-15T11:14:48.361Z,99.90
2019-03-15T11:17:16.423Z,99.90
2019-03-15T11:19:44.593Z,99.90
2019-03-15T11:22:12.691Z,99.90
2019-03-15T11:24:43.655Z,99.90
2019-03-15T11:27:10.814Z,99.90
2019-03-15T11:29:38.899Z,99.90
2019-03-15T11:32:06.863Z,99.90
2019-03-15T11:34:37.590Z,99.90
2019-03-15T11:37:05.834Z,99.80
2019-03-15T11:39:34.413Z,99.50
2019-03-15T11:42:02.545Z,99.30
2019-03-15T11:44:31.030Z,99.30
2019-03-15T11:46:59.880Z,99.30
2019-03-15T11:49:28.547Z,98.90
2019-03-15T11:51:56.711Z,98.60
2019-03-15T11:54:25.011Z,98.40
2019-03-15T11:56:53.230Z,98.50
2019-03-15T11:59:23.296Z,98.50
2019-03-15T12:02:03.359Z,99.00
2019-03-15T12:04:22.401Z,99.10
2019-03-15T12:06:50.943Z,98.80
2019-03-15T12:09:19.020Z,99.00
2019-03-15T12:11:47.158Z,99.10
2019-03-15T12:14:15.563Z,99.20
2019-03-15T12:16:43.708Z,99.00
2019-03-15T12:19:11.856Z,99.10
2019-03-15T12:21:39.879Z,98.50
2019-03-15T12:24:07.967Z,98.30
2019-03-15T12:26:40.503Z,97.90
2019-03-15T12:29:09.100Z,98.00
2019-03-15T12:31:37.316Z,97.90
2019-03-15T12:34:05.618Z,97.00
2019-03-15T12:36:33.758Z,96.50
2019-03-15T12:39:01.925Z,96.40
2019-03-15T12:41:30.685Z,95.50
2019-03-15T12:43:58.700Z,94.90
2019-03-15T12:46:26.799Z,94.60
2019-03-15T12:48:55.148Z,93.30
2019-03-15T12:51:31.983Z,93.20
2019-03-15T12:53:53.955Z,92.60
2019-03-15T12:56:22.123Z,92.00
2019-03-15T12:58:50.280Z,91.40
2019-03-15T13:01:18.657Z,90.40
2019-03-15T13:03:46.823Z,90.80
2019-03-15T13:06:14.821Z,90.30
2019-03-15T13:08:43.171Z,90.20
2019-03-15T13:11:11.190Z,90.30
2019-03-15T13:13:39.225Z,88.90
2019-03-15T13:16:07.803Z,88.40
2019-03-15T13:18:36.290Z,88.40
2019-03-15T13:21:04.341Z,85.90
2019-03-15T13:23:33.379Z,85.60
2019-03-15T13:26:01.388Z,85.20
2019-03-15T13:28:29.609Z,84.30
2019-03-15T13:30:57.886Z,83.50
2019-03-15T13:33:25.956Z,82.70
2019-03-15T13:35:59.989Z,82.90
2019-03-15T13:38:28.122Z,82.70
2019-03-15T13:40:56.171Z,82.00
2019-03-15T13:43:24.624Z,80.60
2019-03-15T13:45:53.084Z,80.50
2019-03-15T13:48:21.381Z,81.30
2019-03-15T13:50:49.661Z,81.10
2019-03-15T13:53:17.747Z,80.90
2019-03-15T13:55:45.999Z,81.30
2019-03-15T13:58:14.192Z,77.70
2019-03-15T14:00:42.379Z,76.50
2019-03-15T14:03:10.854Z,76.70
2019-03-15T14:05:39.283Z,76.30
2019-03-15T14:08:12.036Z,77.20
2019-03-15T14:10:48.727Z,74.80
2019-03-15T14:13:08.101Z,75.30
2019-03-15T14:15:36.252Z,75.30
2019-03-15T14:18:05.495Z,73.80
2019-03-15T14:20:33.452Z,74.70
2019-03-15T14:23:02.656Z,75.10
2019-03-15T14:25:30.818Z,73.50
2019-03-15T14:27:59.491Z,74.00
2019-03-15T14:30:27.620Z,74.90
2019-03-15T14:32:55.623Z,74.20
2019-03-15T14:35:23.703Z,75.10
2019-03-15T14:37:51.801Z,75.00
2019-03-15T14:40:20.060Z,74.60
2019-03-15T14:42:48.207Z,73.80
2019-03-15T14:45:17.137Z,74.70
2019-03-15T14:47:45.355Z,74.30
2019-03-15T14:50:14.528Z,74.70
2019-03-15T14:52:43.076Z,74.80
2019-03-15T14:55:11.135Z,72.70
2019-03-15T14:57:50.990Z,73.90
2019-03-15T15:00:11.380Z,72.70
2019-03-15T15:02:39.805Z,73.20
2019-03-15T15:05:09.286Z,72.60
2019-03-15T15:07:38.570Z,73.50
2019-03-15T15:10:07.587Z,73.10
2019-03-15T15:12:36.085Z,72.70
2019-03-15T15:15:04.715Z,72.60
2019-03-15T15:17:33.732Z,72.60
2019-03-15T15:20:01.942Z,72.60
2019-03-15T15:22:30.279Z,73.30
2019-03-15T15:24:59.639Z,74.50
2019-03-15T15:27:27.693Z,74.80
2019-03-15T15:29:57.405Z,75.70
2019-03-15T15:32:25.590Z,76.00
2019-03-15T15:34:53.879Z,76.20
2019-03-15T15:37:21.956Z,77.00
2019-03-15T15:39:50.050Z,77.50
2019-03-15T15:42:18.094Z,77.60
2019-03-15T15:44:46.206Z,77.50
2019-03-15T15:47:14.565Z,77.80
2019-03-15T15:49:42.668Z,78.10
2019-03-15T15:52:10.674Z,77.80
2019-03-15T15:54:38.908Z,78.00
2019-03-15T15:57:07.018Z,77.60
2019-03-15T15:59:35.322Z,77.90
2019-03-15T16:02:03.941Z,77.80
2019-03-15T16:04:32.078Z,77.20
2019-03-15T16:07:00.306Z,77.10
2019-03-15T16:09:28.718Z,76.60
2019-03-15T16:11:58.188Z,76.70
2019-03-15T16:14:29.849Z,76.70
2019-03-15T16:16:58.291Z,76.70
2019-03-15T16:19:26.588Z,76.60
2019-03-15T16:21:54.628Z,76.70
2019-03-15T16:24:23.650Z,76.70
2019-03-15T16:26:51.964Z,76.70
2019-03-15T16:29:20.262Z,76.70
2019-03-15T16:31:48.526Z,76.60
2019-03-15T16:34:16.909Z,76.60
2019-03-15T16:36:45.310Z,76.60
2019-03-15T16:39:13.610Z,76.90
2019-03-15T16:41:45.550Z,77.30
2019-03-15T16:44:14.013Z,77.40
2019-03-15T16:46:42.154Z,77.20
2019-03-15T16:49:12.668Z,77.20
2019-03-15T16:51:40.854Z,77.00
2019-03-15T16:54:09.598Z,76.60
2019-03-15T16:56:37.722Z,76.60
2019-03-15T16:59:06.717Z,76.80
2019-03-15T17:01:37.632Z,77.20
2019-03-15T17:04:05.978Z,77.40
2019-03-15T17:06:34.082Z,77.40
2019-03-15T17:09:02.487Z,77.50
2019-03-15T17:11:32.632Z,78.10
2019-03-15T17:14:00.919Z,78.00
2019-03-15T17:16:30.045Z,78.50
2019-03-15T17:18:58.977Z,78.30
2019-03-15T17:21:28.110Z,77.80
2019-03-15T17:23:56.562Z,78.00
2019-03-15T17:26:25.945Z,79.10
2019-03-15T17:28:58.809Z,78.60
2019-03-15T17:31:25.454Z,79.40
2019-03-15T17:33:55.058Z,79.60
2019-03-15T17:36:23.228Z,79.10
2019-03-15T17:38:51.358Z,79.80
2019-03-15T17:41:19.461Z,80.40
2019-03-15T17:43:47.480Z,80.60
2019-03-15T17:46:15.667Z,80.70
2019-03-15T17:48:43.702Z,80.70
2019-03-15T17:51:12.573Z,80.70
2019-03-15T17:53:40.778Z,80.90
2019-03-15T17:56:08.916Z,80.70
2019-03-15T17:58:37.149Z,80.70
2019-03-15T18:01:05.294Z,80.70
2019-03-15T18:03:33.453Z,80.70
2019-03-15T18:06:01.759Z,80.40
2019-03-15T18:08:29.983Z,80.00
2019-03-15T18:10:58.161Z,79.50
2019-03-15T18:13:26.477Z,79.60
2019-03-15T18:15:54.706Z,79.70
2019-03-15T18:18:22.887Z,79.90
2019-03-15T18:20:51.280Z,79.70
2019-03-15T18:23:19.745Z,80.00
2019-03-15T18:25:48.525Z,80.60
2019-03-15T18:28:17.209Z,80.70
2019-03-15T18:30:45.569Z,80.70
2019-03-15T18:33:14.651Z,81.50
2019-03-15T18:35:43.014Z,82.60
2019-03-15T18:38:11.465Z,83.40
2019-03-15T18:40:39.743Z,83.60
2019-03-15T18:43:07.853Z,83.60
2019-03-15T18:45:38.000Z,84.50
2019-03-15T18:48:06.540Z,85.90
2019-03-15T18:50:35.567Z,86.20
2019-03-15T18:53:03.918Z,86.00
2019-03-15T18:55:32.451Z,86.50
2019-03-15T18:58:00.827Z,86.80
2019-03-15T19:00:29.200Z,86.70
2019-03-15T19:03:00.047Z,87.30
2019-03-15T19:05:28.081Z,87.20
2019-03-15T19:07:56.615Z,87.20
2019-03-15T19:10:25.262Z,87.90
2019-03-15T19:12:53.478Z,87.90
2019-03-15T19:15:22.991Z,88.50
2019-03-15T19:17:51.294Z,89.00
2019-03-15T19:20:19.722Z,89.60
2019-03-15T19:22:50.087Z,89.80
2019-03-15T19:25:18.630Z,89.60
2019-03-15T19:27:46.933Z,89.90
2019-03-15T19:30:15.397Z,90.00
2019-03-15T19:32:44.390Z,89.60
2019-03-15T19:35:12.666Z,90.10
2019-03-15T19:37:42.075Z,89.50
2019-03-15T19:40:11.240Z,89.90
2019-03-15T19:42:39.561Z,90.20
2019-03-15T19:45:10.820Z,90.00
2019-03-15T19:47:40.689Z,89.70
2019-03-15T19:50:11.791Z,89.00
2019-03-15T19:52:41.793Z,89.10
2019-03-15T19:55:11.068Z,89.10
2019-03-15T19:57:39.321Z,88.60
2019-03-15T20:00:10.641Z,87.80
2019-03-15T20:02:38.884Z,87.90
2019-03-15T20:05:08.131Z,87.10
2019-03-15T20:07:36.358Z,86.40
2019-03-15T20:10:05.245Z,86.70
2019-03-15T20:12:33.583Z,85.50
2019-03-15T20:15:03.386Z,85.80
2019-03-15T20:17:31.536Z,85.80
2019-03-15T20:20:00.385Z,85.70
2019-03-15T20:22:30.158Z,85.70
2019-03-15T20:24:59.494Z,84.90
2019-03-15T20:27:28.012Z,84.90
2019-03-15T20:29:56.585Z,85.70
2019-03-15T20:32:26.608Z,85.80
2019-03-15T20:34:55.716Z,85.50
2019-03-15T20:37:25.757Z,85.80
2019-03-15T20:39:55.628Z,85.20
2019-03-15T20:42:23.920Z,84.90
2019-03-15T20:44:52.490Z,84.70
2019-03-15T20:47:20.840Z,84.70
2019-03-15T20:49:50.452Z,84.60
2019-03-15T20:52:19.196Z,84.90
2019-03-15T20:54:47.610Z,85.10
2019-03-15T20:57:15.973Z,84.60
2019-03-15T20:59:45.476Z,83.90
2019-03-15T21:02:13.678Z,84.10
2019-03-15T21:04:41.767Z,83.80
2019-03-15T21:07:10.526Z,84.50
2019-03-15T21:09:38.731Z,84.50
2019-03-15T21:12:07.206Z,84.60
2019-03-15T21:14:35.527Z,84.70
2019-03-15T21:17:03.617Z,85.40
2019-03-15T21:19:32.010Z,85.90
2019-03-15T21:22:00.382Z,85.60
2019-03-15T21:24:28.806Z,85.00
2019-03-15T21:27:01.710Z,85.10
2019-03-15T21:32:12.896Z,85.00
2019-03-15T21:34:41.581Z,84.70
2019-03-15T21:37:10.062Z,84.00
2019-03-15T21:39:38.718Z,83.50
2019-03-15T21:42:07.406Z,82.40
2019-03-15T21:44:35.636Z,82.50
2019-03-15T21:47:03.938Z,82.70
2019-03-15T21:49:35.186Z,82.80
2019-03-15T21:52:02.067Z,82.70
2019-03-15T21:54:30.250Z,82.60
2019-03-15T21:56:58.525Z,82.50
2019-03-15T21:59:26.766Z,82.30
2019-03-15T22:01:54.975Z,82.50
2019-03-15T22:04:23.091Z,82.10
2019-03-15T22:06:51.345Z,82.40
2019-03-15T22:09:19.525Z,82.70
2019-03-15T22:11:47.709Z,82.90
2019-03-15T22:14:15.795Z,84.00
2019-03-15T22:16:44.365Z,84.80
2019-03-15T22:19:12.624Z,85.50
2019-03-15T22:21:40.902Z,87.10
2019-03-15T22:24:09.091Z,88.10
2019-03-15T22:26:37.136Z,91.20
2019-03-15T22:29:05.413Z,93.00
2019-03-15T22:31:33.514Z,94.70
2019-03-15T22:34:01.538Z,95.80
2019-03-15T22:36:29.759Z,96.60
2019-03-15T22:38:57.733Z,97.50
2019-03-15T22:41:25.735Z,97.80
2019-03-15T22:44:07.569Z,97.30
2019-03-15T22:46:36.279Z,97.50
2019-03-15T22:49:04.703Z,97.60
2019-03-15T22:51:36.294Z,97.40
2019-03-15T22:54:04.574Z,96.60
2019-03-15T22:56:32.991Z,95.60
2019-03-15T22:59:01.549Z,95.80
2019-03-15T23:01:30.693Z,95.90
2019-03-15T23:04:03.736Z,96.40
2019-03-15T23:06:32.071Z,96.50
2019-03-15T23:09:00.429Z,97.00
2019-03-15T23:11:28.768Z,97.40
2019-03-15T23:13:59.036Z,97.50
2019-03-15T23:16:27.433Z,97.70
2019-03-15T23:18:55.823Z,98.10
2019-03-15T23:21:28.639Z,98.40
2019-03-15T23:23:56.956Z,98.90
2019-03-15T23:26:25.788Z,99.10
2019-03-15T23:28:54.059Z,99.50
2019-03-15T23:31:22.858Z,99.90
2019-03-15T23:33:51.007Z,99.90
2019-03-15T23:36:19.275Z,99.90
2019-03-15T23:38:47.649Z,99.90
2019-03-15T23:41:15.978Z,99.90
2019-03-15T23:43:44.152Z,99.90
2019-03-15T23:46:14.806Z,99.90
2019-03-15T23:48:43.041Z,99.90
2019-03-15T23:51:11.266Z,99.90
2019-03-15T23:53:43.682Z,99.90
2019-03-15T23:56:11.745Z,99.90
2019-03-15T23:58:40.065Z,99.90
